Airports

 

 

Airport Name Latest METAR Visual Conditions
Guam International Airport (GUM) PGUM 152054Z 09004KT 10SM FEW016 FEW021 SCT027 27/25 A2989 RMK AO2 SLP112 T02720250 53015 $ VFR
Daniel K Inouye International Airport (HNL) PHNL 152053Z 19006KT 10SM FEW025 SCT040 BKN200 29/22 A2999 RMK AO2 SLP157 T02890222 50004 VFR
Hilo International Airport (ITO) PHTO 152053Z 02007KT 10SM CLR 31/20 A2998 RMK AO2 SLP149 T03060200 58007 VFR
Ellison Onizuka Kona International Airport at Keahole (Kona) (KOA) PHKO 152053Z 29004KT 10SM SCT050 28/21 A3000 RMK AO2 SLP156 T02830206 52008 $ VFR
Lihue Airport (LIH) PHLI 152053Z 23007KT 10SM CLR 28/23 A3001 RMK AO2 SLP158 T02780228 50009 VFR
Kahului Airport (Maui) (OGG) PHOG 152054Z 35008KT 10SM FEW040 30/20 A3000 RMK AO2 SLP164 T03000200 51002 VFR